Time;durP1;ratioP1;P1;durP2;ratioP2;P2;SDS_P1;SDS_P2;PMS_P1;PMS_P2;Temp;Humidity;BMP_temperature;BMP_pressure;BME280_temperature;BME280_humidity;BME280_pressure;Samples;Min_cycle;Max_cycle;Signal;HPM_P1;HPM_P2
2022/07/25 00:02:03;;;;;;;;;;;;;;;;;;5048515;28;1670;-68
2022/07/25 00:04:28;;;;;;;;;;;;;;;;;;5050986;28;1948;-69
2022/07/25 00:06:53;;;;;;;;;;;;;;;;;;5057785;28;1519;-69
2022/07/25 00:09:19;;;;;;;;;;;;;;;;;;5048334;28;1875;-69
2022/07/25 00:11:44;;;;;;;;;;;;;;;;;;5048389;28;1805;-69
2022/07/25 00:14:09;;;;;;;;;;;;;;;;;;5056386;28;1451;-70
2022/07/25 00:16:34;;;;;;;;;;;;;;;;;;5051146;28;1480;-69
2022/07/25 00:18:59;;;;;;;;;;;;;;;;;;5047819;28;1860;-70
2022/07/25 00:21:25;;;;;;;;;;;;;;;;;;5053235;28;1894;-68
2022/07/25 00:23:50;;;;;;;;;;;;;;;;;;5052521;28;1479;-68
2022/07/25 00:26:15;;;;;;;;;;;;;;;;;;5055793;28;1821;-70
2022/07/25 00:28:41;;;;;;;;;;;;;;;;;;5046968;28;1566;-73
2022/07/25 00:31:06;;;;;;;;;;;;;;;;;;5051306;28;1527;-70
2022/07/25 00:33:31;;;;;;;;;;;;;;;;;;5044319;28;1841;-71
2022/07/25 00:35:56;;;;;;;;;;;;;;;;;;5052119;28;1527;-72
2022/07/25 00:38:22;;;;;;;;;;;;;;;;;;5055382;28;1830;-73
2022/07/25 00:40:47;;;;;;;;;;;;;;;;;;5056560;28;1898;-72
2022/07/25 00:43:12;;;;;;;;;;;;;;;;;;5057879;28;1518;-72
2022/07/25 00:45:37;;;;;;;;;;;;;;;;;;5050028;28;1516;-72
2022/07/25 00:48:03;;;;;;;;;;;;;;;;;;5058663;28;1337;-71
2022/07/25 00:50:28;;;;;;;;;;;;;;;;;;5056902;28;1539;-72
2022/07/25 00:52:54;;;;;;;;;;;;;;;;;;5046350;28;1515;-72
2022/07/25 00:55:19;;;;;;;;;;;;;;;;;;5048498;28;1527;-69
2022/07/25 00:57:44;;;;;;;;;;;;;;;;;;5052969;28;1542;-70
2022/07/25 01:00:12;;;;;;;;;;;;;;;;;;5050684;28;1894;-70
2022/07/25 01:02:37;;;;;;;;;;;;;;;;;;5054004;28;1432;-70
2022/07/25 01:05:04;;;;;;;;;;;;;;;;;;5060000;28;1562;-70
2022/07/25 01:07:29;;;;;;;;;;;;;;;;;;5052313;28;1536;-70
2022/07/25 01:09:54;;;;;;;;;;;;;;;;;;5059235;28;1538;-70
2022/07/25 01:12:20;;;;;;;;;;;;;;;;;;5056963;28;1599;-70
2022/07/25 01:14:45;;;;;;;;;;;;;;;;;;5046696;28;1547;-70
2022/07/25 01:17:12;;;;;;;;;;;;;;;;;;5035931;28;1643;-68
2022/07/25 01:19:37;;;;;;;;;;;;;;;;;;5054467;28;1955;-68
2022/07/25 01:22:02;;;;;;;;;;;;;;;;;;5053728;28;1492;-69
2022/07/25 01:24:27;;;;;;;;;;;;;;;;;;5062895;28;1840;-68
2022/07/25 01:26:53;;;;;;;;;;;;;;;;;;5057669;28;1701;-69
2022/07/25 01:29:18;;;;;;;;;;;;;;;;;;5054895;28;1836;-69
2022/07/25 01:31:43;;;;;;;;;;;;;;;;;;5055285;28;1554;-68
2022/07/25 01:34:08;;;;;;;;;;;;;;;;;;5059787;28;1436;-69
2022/07/25 01:36:34;;;;;;;;;;;;;;;;;;5057418;28;1523;-69
2022/07/25 01:38:59;;;;;;;;;;;;;;;;;;5056734;28;1577;-69
2022/07/25 01:41:24;;;;;;;;;;;;;;;;;;5063172;28;1963;-69
2022/07/25 01:43:49;;;;;;;;;;;;;;;;;;5060762;28;1848;-69
2022/07/25 01:46:14;;;;;;;;;;;;;;;;;;5061215;28;1571;-69
2022/07/25 01:48:40;;;;;;;;;;;;;;;;;;5047535;28;1853;-69
2022/07/25 01:51:05;;;;;;;;;;;;;;;;;;5062417;28;1626;-69
2022/07/25 01:53:30;;;;;;;;;;;;;;;;;;5061736;28;1534;-69
2022/07/25 01:55:55;;;;;;;;;;;;;;;;;;5055453;28;1751;-69
2022/07/25 01:58:21;;;;;;;;;;;;;;;;;;5054802;28;1887;-70
2022/07/25 02:00:46;;;;;;;;;;;;;;;;;;5058313;28;1957;-69
2022/07/25 02:03:30;;;;;;;;;;;;;;;;;;5062543;28;1204;-69
2022/07/25 02:05:56;;;;;;;;;;;;;;;;;;5042819;28;1789;-69
2022/07/25 02:08:22;;;;;;;;;;;;;;;;;;5054690;28;1445;-69
2022/07/25 02:10:47;;;;;;;;;;;;;;;;;;5058089;28;1848;-69
2022/07/25 02:13:12;;;;;;;;;;;;;;;;;;5061358;28;1562;-69
2022/07/25 02:15:37;;;;;;;;;;;;;;;;;;5056102;28;1499;-69
2022/07/25 02:18:02;;;;;;;;;;;;;;;;;;5055653;28;1649;-69
2022/07/25 02:20:28;;;;;;;;;;;;;;;;;;5057081;28;1889;-69
2022/07/25 02:22:53;;;;;;;;;;;;;;;;;;5063391;28;1092;-69
2022/07/25 02:25:18;;;;;;;;;;;;;;;;;;5055650;28;1828;-69
2022/07/25 02:27:43;;;;;;;;;;;;;;;;;;5057392;28;1556;-69
2022/07/25 02:30:09;;;;;;;;;;;;;;;;;;5060849;28;1443;-69
2022/07/25 02:32:34;;;;;;;;;;;;;;;;;;5046503;28;1551;-69
2022/07/25 02:34:59;;;;;;;;;;;;;;;;;;5060264;28;1148;-69
2022/07/25 02:37:24;;;;;;;;;;;;;;;;;;5055233;28;1772;-69
2022/07/25 02:39:50;;;;;;;;;;;;;;;;;;5055857;28;1898;-69
2022/07/25 02:42:15;;;;;;;;;;;;;;;;;;5055295;28;1538;-69
2022/07/25 02:44:40;;;;;;;;;;;;;;;;;;5062993;28;1148;-69
2022/07/25 02:47:05;;;;;;;;;;;;;;;;;;5046041;28;1907;-69
2022/07/25 02:49:30;;;;;;;;;;;;;;;;;;5055445;28;1565;-69
2022/07/25 02:51:56;;;;;;;;;;;;;;;;;;5047275;28;1507;-69
2022/07/25 02:54:21;;;;;;;;;;;;;;;;;;5059501;28;1307;-69
2022/07/25 02:56:46;;;;;;;;;;;;;;;;;;5054971;28;1558;-68
2022/07/25 02:59:12;;;;;;;;;;;;;;;;;;5058908;28;1530;-69
2022/07/25 03:01:37;;;;;;;;;;;;;;;;;;5053339;28;1976;-69
2022/07/25 03:04:02;;;;;;;;;;;;;;;;;;5052956;28;1487;-69
2022/07/25 03:06:27;;;;;;;;;;;;;;;;;;5060290;28;1511;-67
2022/07/25 03:08:53;;;;;;;;;;;;;;;;;;5062877;28;1092;-68
2022/07/25 03:11:18;;;;;;;;;;;;;;;;;;5054112;28;1903;-69
2022/07/25 03:13:43;;;;;;;;;;;;;;;;;;5055991;28;1554;-68
2022/07/25 03:16:09;;;;;;;;;;;;;;;;;;5057024;28;1614;-68
2022/07/25 03:18:34;;;;;;;;;;;;;;;;;;5048968;28;1777;-68
2022/07/25 03:20:59;;;;;;;;;;;;;;;;;;5052399;28;1965;-67
2022/07/25 03:23:26;;;;;;;;;;;;;;;;;;5061544;28;1205;-68
2022/07/25 03:25:51;;;;;;;;;;;;;;;;;;5054281;28;1722;-68
2022/07/25 03:28:16;;;;;;;;;;;;;;;;;;5060548;28;1620;-68
2022/07/25 03:30:41;;;;;;;;;;;;;;;;;;5050683;28;1491;-68
2022/07/25 03:33:06;;;;;;;;;;;;;;;;;;5060066;28;1514;-68
2022/07/25 03:35:31;;;;;;;;;;;;;;;;;;5056875;28;1707;-68
2022/07/25 03:37:57;;;;;;;;;;;;;;;;;;5058583;28;1247;-69
2022/07/25 03:40:22;;;;;;;;;;;;;;;;;;5055312;28;1910;-69
2022/07/25 03:42:47;;;;;;;;;;;;;;;;;;5061200;28;1475;-69
2022/07/25 03:45:12;;;;;;;;;;;;;;;;;;5057222;28;1844;-69
2022/07/25 03:47:37;;;;;;;;;;;;;;;;;;5047264;28;1623;-69
2022/07/25 03:50:03;;;;;;;;;;;;;;;;;;5053619;28;1974;-69
2022/07/25 03:52:28;;;;;;;;;;;;;;;;;;5061165;28;1527;-69
2022/07/25 03:54:53;;;;;;;;;;;;;;;;;;5061507;28;1044;-69
2022/07/25 03:57:19;;;;;;;;;;;;;;;;;;5058463;28;1686;-67
2022/07/25 03:59:44;;;;;;;;;;;;;;;;;;5050723;28;1893;-67
2022/07/25 04:02:10;;;;;;;;;;;;;;;;;;5056520;28;1515;-67
2022/07/25 04:04:35;;;;;;;;;;;;;;;;;;5054016;28;1974;-67
2022/07/25 04:07:00;;;;;;;;;;;;;;;;;;5050560;28;1515;-67
2022/07/25 04:09:25;;;;;;;;;;;;;;;;;;5052465;28;1586;-67
2022/07/25 04:11:50;;;;;;;;;;;;;;;;;;5060989;28;1229;-67
2022/07/25 04:14:16;;;;;;;;;;;;;;;;;;5055174;28;1444;-67
2022/07/25 04:16:41;;;;;;;;;;;;;;;;;;5048581;28;1705;-68
2022/07/25 04:19:06;;;;;;;;;;;;;;;;;;5059991;28;1542;-68
2022/07/25 04:21:31;;;;;;;;;;;;;;;;;;5056242;28;1963;-68
2022/07/25 04:23:56;;;;;;;;;;;;;;;;;;5061324;28;1175;-68
2022/07/25 04:26:22;;;;;;;;;;;;;;;;;;5053628;28;1911;-67
2022/07/25 04:28:47;;;;;;;;;;;;;;;;;;5054478;28;1510;-68
2022/07/25 04:31:12;;;;;;;;;;;;;;;;;;5049888;28;1595;-68
2022/07/25 04:33:38;;;;;;;;;;;;;;;;;;5057695;28;1574;-68
2022/07/25 04:36:04;;;;;;;;;;;;;;;;;;5049119;28;1693;-69
2022/07/25 04:38:29;;;;;;;;;;;;;;;;;;5060499;28;1263;-69
2022/07/25 04:40:55;;;;;;;;;;;;;;;;;;5058482;28;1902;-68
2022/07/25 04:43:20;;;;;;;;;;;;;;;;;;5051528;28;1519;-68
2022/07/25 04:45:45;;;;;;;;;;;;;;;;;;5049920;28;1665;-68
2022/07/25 04:48:10;;;;;;;;;;;;;;;;;;5058613;28;1526;-67
2022/07/25 04:50:36;;;;;;;;;;;;;;;;;;5050217;28;1558;-68
2022/07/25 04:53:01;;;;;;;;;;;;;;;;;;5055670;28;1586;-67
2022/07/25 04:55:26;;;;;;;;;;;;;;;;;;5053500;28;1857;-68
2022/07/25 04:57:51;;;;;;;;;;;;;;;;;;5053969;28;1614;-69
2022/07/25 05:00:17;;;;;;;;;;;;;;;;;;5049445;28;1977;-68
2022/07/25 05:02:42;;;;;;;;;;;;;;;;;;5058001;28;1227;-69
2022/07/25 05:05:07;;;;;;;;;;;;;;;;;;5055531;28;1421;-70
2022/07/25 05:07:33;;;;;;;;;;;;;;;;;;5055009;28;1353;-70
2022/07/25 05:09:59;;;;;;;;;;;;;;;;;;5052648;28;1381;-70
2022/07/25 05:12:24;;;;;;;;;;;;;;;;;;5055950;28;1510;-71
2022/07/25 05:14:49;;;;;;;;;;;;;;;;;;5055749;28;1270;-70
2022/07/25 05:17:14;;;;;;;;;;;;;;;;;;5053615;28;1727;-71
2022/07/25 05:19:39;;;;;;;;;;;;;;;;;;5056167;28;1893;-69
2022/07/25 05:22:05;;;;;;;;;;;;;;;;;;5052665;28;1313;-69
2022/07/25 05:24:34;;;;;;;;;;;;;;;;;;5056974;28;1247;-69
2022/07/25 05:26:59;;;;;;;;;;;;;;;;;;5052122;28;1349;-70
2022/07/25 05:29:24;;;;;;;;;;;;;;;;;;5053274;28;1227;-70
2022/07/25 05:31:49;;;;;;;;;;;;;;;;;;5054811;28;1433;-69
2022/07/25 05:34:14;;;;;;;;;;;;;;;;;;5057107;28;1223;-69
2022/07/25 05:36:39;;;;;;;;;;;;;;;;;;5048910;28;1354;-68
2022/07/25 05:39:05;;;;;;;;;;;;;;;;;;5057199;28;1177;-69
2022/07/25 05:41:30;;;;;;;;;;;;;;;;;;5055210;28;1963;-69
2022/07/25 05:43:55;;;;;;;;;;;;;;;;;;5052735;28;1345;-67
2022/07/25 05:46:20;;;;;;;;;;;;;;;;;;5053042;28;1385;-70
2022/07/25 05:48:45;;;;;;;;;;;;;;;;;;5053895;28;1321;-70
2022/07/25 05:51:11;;;;;;;;;;;;;;;;;;5057182;28;1377;-69
2022/07/25 05:53:36;;;;;;;;;;;;;;;;;;5051698;28;1187;-70
2022/07/25 05:56:02;;;;;;;;;;;;;;;;;;5053005;28;1244;-70
2022/07/25 05:58:27;;;;;;;;;;;;;;;;;;5053165;28;1405;-70
2022/07/25 06:00:53;;;;;;;;;;;;;;;;;;5052617;28;1893;-70
2022/07/25 06:03:18;;;;;;;;;;;;;;;;;;5057793;28;1286;-70
2022/07/25 06:05:44;;;;;;;;;;;;;;;;;;5050548;28;1524;-67
2022/07/25 06:08:09;;;;;;;;;;;;;;;;;;5053606;28;1501;-67
2022/07/25 06:10:34;;;;;;;;;;;;;;;;;;5052781;28;1270;-68
2022/07/25 06:12:59;;;;;;;;;;;;;;;;;;5054635;28;1465;-67
2022/07/25 06:15:24;;;;;;;;;;;;;;;;;;5054844;28;1238;-67
2022/07/25 06:17:50;;;;;;;;;;;;;;;;;;5051855;28;1263;-67
2022/07/25 06:20:15;;;;;;;;;;;;;;;;;;5052359;28;1893;-67
2022/07/25 06:22:40;;;;;;;;;;;;;;;;;;5053350;28;1642;-67
2022/07/25 06:25:05;;;;;;;;;;;;;;;;;;5052030;28;1284;-67
2022/07/25 06:27:31;;;;;;;;;;;;;;;;;;5051466;28;1295;-68
2022/07/25 06:29:56;;;;;;;;;;;;;;;;;;5052036;28;1280;-68
2022/07/25 06:32:21;;;;;;;;;;;;;;;;;;5051806;28;1295;-68
2022/07/25 06:34:46;;;;;;;;;;;;;;;;;;5063027;28;870;-65
2022/07/25 06:37:11;;;;;;;;;;;;;;;;;;5051028;28;1407;-67
2022/07/25 06:39:37;;;;;;;;;;;;;;;;;;5062963;28;1211;-67
2022/07/25 06:42:03;;;;;;;;;;;;;;;;;;5050745;28;1974;-67
2022/07/25 06:44:30;;;;;;;;;;;;;;;;;;5043230;28;1571;-67
2022/07/25 06:46:56;;;;;;;;;;;;;;;;;;5046765;28;1211;-67
2022/07/25 06:49:21;;;;;;;;;;;;;;;;;;5063051;28;1028;-67
2022/07/25 06:51:46;;;;;;;;;;;;;;;;;;5045901;28;1510;-67
2022/07/25 06:54:13;;;;;;;;;;;;;;;;;;5043131;28;1432;-67
2022/07/25 06:56:38;;;;;;;;;;;;;;;;;;5048662;28;1551;-68
2022/07/25 06:59:03;;;;;;;;;;;;;;;;;;5060537;28;1347;-67
2022/07/25 07:01:29;;;;;;;;;;;;;;;;;;5061912;28;1894;-66
2022/07/25 07:03:54;;;;;;;;;;;;;;;;;;5061687;28;803;-65
2022/07/25 07:06:19;;;;;;;;;;;;;;;;;;5049714;28;1452;-66
2022/07/25 07:08:44;;;;;;;;;;;;;;;;;;5042526;28;925;-66
2022/07/25 07:11:09;;;;;;;;;;;;;;;;;;5045998;28;1492;-65
2022/07/25 07:13:34;;;;;;;;;;;;;;;;;;5060574;28;1428;-65
2022/07/25 07:16:00;;;;;;;;;;;;;;;;;;5062320;28;795;-65
2022/07/25 07:18:25;;;;;;;;;;;;;;;;;;5061824;28;1262;-65
2022/07/25 07:20:51;;;;;;;;;;;;;;;;;;5045762;28;1973;-65
2022/07/25 07:23:16;;;;;;;;;;;;;;;;;;5042376;28;1511;-66
2022/07/25 07:25:41;;;;;;;;;;;;;;;;;;5042481;28;1060;-66
2022/07/25 07:28:06;;;;;;;;;;;;;;;;;;5041246;28;1527;-66
2022/07/25 07:30:32;;;;;;;;;;;;;;;;;;5051229;28;1464;-66
2022/07/25 07:32:57;;;;;;;;;;;;;;;;;;5053985;28;1286;-66
2022/07/25 07:35:24;;;;;;;;;;;;;;;;;;5042161;28;1417;-67
2022/07/25 07:37:50;;;;;;;;;;;;;;;;;;5050555;28;1515;-66
2022/07/25 07:40:16;;;;;;;;;;;;;;;;;;5062291;28;1905;-69
2022/07/25 07:42:42;;;;;;;;;;;;;;;;;;5044421;28;1547;-69
2022/07/25 07:45:11;;;;;;;;;;;;;;;;;;5041895;28;863;-67
2022/07/25 07:47:36;;;;;;;;;;;;;;;;;;5044207;28;1536;-67
2022/07/25 07:50:02;;;;;;;;;;;;;;;;;;5053564;28;1612;-67
2022/07/25 07:52:27;;;;;;;;;;;;;;;;;;5053394;28;1459;-67
2022/07/25 07:57:36;;;;;;;;;;;;;;;;;;5057802;28;1527;-66
2022/07/25 08:00:02;;;;;;;;;;;;;;;;;;5053640;28;1941;-67
2022/07/25 08:02:28;;;;;;;;;;;;;;;;;;5056287;28;1533;-67
2022/07/25 08:04:53;;;;;;;;;;;;;;;;;;5061890;28;1089;-67
2022/07/25 08:07:18;;;;;;;;;;;;;;;;;;5047478;28;1492;-67
2022/07/25 08:09:43;;;;;;;;;;;;;;;;;;5060873;28;1258;-67
2022/07/25 08:12:08;;;;;;;;;;;;;;;;;;5061433;28;1128;-67
2022/07/25 08:14:34;;;;;;;;;;;;;;;;;;5061474;28;1009;-67
2022/07/25 08:16:59;;;;;;;;;;;;;;;;;;5054039;28;1923;-67
2022/07/25 08:19:24;;;;;;;;;;;;;;;;;;5061115;28;1036;-67
2022/07/25 08:21:49;;;;;;;;;;;;;;;;;;5060311;28;1963;-67
2022/07/25 08:24:14;;;;;;;;;;;;;;;;;;5056220;28;1326;-67
2022/07/25 08:26:39;;;;;;;;;;;;;;;;;;5047606;28;1783;-66
2022/07/25 08:29:05;;;;;;;;;;;;;;;;;;5061240;28;1519;-66
2022/07/25 08:31:30;;;;;;;;;;;;;;;;;;5065399;28;1301;-67
2022/07/25 08:33:55;;;;;;;;;;;;;;;;;;5065922;28;1413;-68
2022/07/25 08:36:20;;;;;;;;;;;;;;;;;;5055630;28;1413;-67
2022/07/25 08:38:45;;;;;;;;;;;;;;;;;;5064349;28;1349;-67
2022/07/25 08:41:10;;;;;;;;;;;;;;;;;;5065344;28;1962;-68
2022/07/25 08:43:36;;;;;;;;;;;;;;;;;;5079164;28;1349;-67
2022/07/25 08:46:03;;;;;;;;;;;;;;;;;;5075041;28;1313;-68
2022/07/25 08:48:29;;;;;;;;;;;;;;;;;;5066651;28;1522;-67
2022/07/25 08:50:55;;;;;;;;;;;;;;;;;;5073509;28;1246;-68
2022/07/25 08:53:21;;;;;;;;;;;;;;;;;;5048853;28;1455;-68
2022/07/25 08:55:46;;;;;;;;;;;;;;;;;;5071967;28;1402;-67
2022/07/25 08:58:12;;;;;;;;;;;;;;;;;;5056895;28;1413;-67
2022/07/25 09:00:38;;;;;;;;;;;;;;;;;;5069150;28;1878;-67
2022/07/25 09:03:05;;;;;;;;;;;;;;;;;;5063931;28;1380;-67
2022/07/25 09:05:30;;;;;;;;;;;;;;;;;;5057200;28;1562;-67
2022/07/25 09:07:57;;;;;;;;;;;;;;;;;;5068027;28;1550;-67
2022/07/25 09:10:24;;;;;;;;;;;;;;;;;;5071213;28;1270;-66
2022/07/25 09:12:53;;;;;;;;;;;;;;;;;;5070960;28;1282;-67
2022/07/25 09:15:24;;;;;;;;;;;;;;;;;;5074131;28;1261;-67
2022/07/25 09:17:51;;;;;;;;;;;;;;;;;;5065851;28;1329;-67
2022/07/25 09:20:16;;;;;;;;;;;;;;;;;;5068801;28;1902;-67
2022/07/25 09:22:42;;;;;;;;;;;;;;;;;;5074495;28;1239;-67
2022/07/25 09:25:17;;;;;;;;;;;;;;;;;;5067880;28;1455;-66
2022/07/25 09:27:43;;;;;;;;;;;;;;;;;;5065431;28;1630;-66
2022/07/25 09:30:12;;;;;;;;;;;;;;;;;;5044252;28;1498;-67
2022/07/25 09:32:37;;;;;;;;;;;;;;;;;;5065152;28;1334;-66
2022/07/25 09:35:03;;;;;;;;;;;;;;;;;;5057295;28;1353;-66
2022/07/25 09:37:28;;;;;;;;;;;;;;;;;;5070993;28;1672;-66
2022/07/25 09:39:53;;;;;;;;;;;;;;;;;;5060305;28;1906;-66
2022/07/25 09:42:24;;;;;;;;;;;;;;;;;;5071653;28;1495;-66
2022/07/25 09:45:06;;;;;;;;;;;;;;;;;;5072473;28;1242;-67
2022/07/25 09:47:33;;;;;;;;;;;;;;;;;;5052439;28;1445;-67
2022/07/25 09:49:58;;;;;;;;;;;;;;;;;;5062572;28;1648;-66
2022/07/25 09:52:23;;;;;;;;;;;;;;;;;;5067275;28;1338;-67
2022/07/25 09:54:49;;;;;;;;;;;;;;;;;;5069935;28;1196;-67
2022/07/25 09:57:14;;;;;;;;;;;;;;;;;;5068599;28;1313;-67
2022/07/25 09:59:39;;;;;;;;;;;;;;;;;;5071897;28;1349;-66
2022/07/25 10:02:15;;;;;;;;;;;;;;;;;;5072176;28;1890;-68
2022/07/25 10:04:40;;;;;;;;;;;;;;;;;;5067806;28;1420;-67
2022/07/25 10:07:09;;;;;;;;;;;;;;;;;;5065594;28;1260;-66
2022/07/25 10:09:45;;;;;;;;;;;;;;;;;;5068652;28;1757;-67
2022/07/25 10:12:11;;;;;;;;;;;;;;;;;;5063007;28;1301;-67
2022/07/25 10:14:37;;;;;;;;;;;;;;;;;;5067074;28;1413;-66
2022/07/25 10:17:03;;;;;;;;;;;;;;;;;;5062573;28;1389;-66
2022/07/25 10:19:41;;;;;;;;;;;;;;;;;;5071374;28;1388;-67
2022/07/25 10:22:06;;;;;;;;;;;;;;;;;;5073773;28;1898;-67
2022/07/25 10:24:33;;;;;;;;;;;;;;;;;;5062832;28;1650;-66
2022/07/25 10:27:05;;;;;;;;;;;;;;;;;;5059019;28;1405;-67
2022/07/25 10:29:34;;;;;;;;;;;;;;;;;;5066191;28;1452;-66
2022/07/25 10:32:07;;;;;;;;;;;;;;;;;;5063566;28;1405;-68
2022/07/25 10:34:33;;;;;;;;;;;;;;;;;;5066245;28;1306;-67
2022/07/25 10:37:07;;;;;;;;;;;;;;;;;;5059249;28;1424;-67
2022/07/25 10:39:37;;;;;;;;;;;;;;;;;;5060557;28;1336;-69
2022/07/25 10:42:03;;;;;;;;;;;;;;;;;;5069804;28;1951;-69
2022/07/25 10:44:38;;;;;;;;;;;;;;;;;;5055284;28;1313;-69
2022/07/25 10:47:13;;;;;;;;;;;;;;;;;;5067746;28;1344;-68
2022/07/25 10:49:43;;;;;;;;;;;;;;;;;;5051249;28;1479;-68
2022/07/25 10:52:16;;;;;;;;;;;;;;;;;;5068667;28;1167;-67
2022/07/25 10:54:51;;;;;;;;;;;;;;;;;;5070091;28;1309;-67
2022/07/25 10:57:16;;;;;;;;;;;;;;;;;;5053829;28;1368;-68
2022/07/25 10:59:41;;;;;;;;;;;;;;;;;;5063357;28;1270;-67
2022/07/25 11:02:08;;;;;;;;;;;;;;;;;;5062305;28;1902;-67
2022/07/25 11:04:33;;;;;;;;;;;;;;;;;;5061062;28;1345;-67
2022/07/25 11:07:09;;;;;;;;;;;;;;;;;;5069496;28;1342;-67
2022/07/25 11:09:34;;;;;;;;;;;;;;;;;;5070292;28;1390;-67
2022/07/25 11:12:00;;;;;;;;;;;;;;;;;;5070747;28;1277;-67
2022/07/25 11:14:25;;;;;;;;;;;;;;;;;;5070623;28;1190;-67
2022/07/25 11:16:51;;;;;;;;;;;;;;;;;;5071856;28;1317;-67
2022/07/25 11:19:23;;;;;;;;;;;;;;;;;;5066881;28;1342;-67
2022/07/25 11:21:50;;;;;;;;;;;;;;;;;;5067144;28;1964;-67
2022/07/25 11:24:15;;;;;;;;;;;;;;;;;;5068559;28;1385;-67
2022/07/25 11:26:44;;;;;;;;;;;;;;;;;;5066693;28;1302;-67
2022/07/25 11:29:16;;;;;;;;;;;;;;;;;;5067366;28;1242;-67
2022/07/25 11:31:41;;;;;;;;;;;;;;;;;;5060786;28;1416;-67
2022/07/25 11:34:07;;;;;;;;;;;;;;;;;;5066577;28;1475;-66
2022/07/25 11:36:32;;;;;;;;;;;;;;;;;;5068505;28;1345;-67
2022/07/25 11:38:57;;;;;;;;;;;;;;;;;;5066873;28;1349;-67
2022/07/25 11:41:29;;;;;;;;;;;;;;;;;;5066681;28;1910;-67
2022/07/25 11:43:56;;;;;;;;;;;;;;;;;;5064313;28;1286;-67
2022/07/25 11:46:21;;;;;;;;;;;;;;;;;;5063834;28;1360;-66
2022/07/25 11:48:46;;;;;;;;;;;;;;;;;;5064498;28;1540;-66
2022/07/25 11:51:13;;;;;;;;;;;;;;;;;;5069385;28;1219;-66
2022/07/25 11:53:40;;;;;;;;;;;;;;;;;;5065667;28;1211;-66
2022/07/25 11:56:15;;;;;;;;;;;;;;;;;;5066599;28;1203;-66
2022/07/25 11:58:41;;;;;;;;;;;;;;;;;;5068064;28;1428;-66
2022/07/25 12:01:10;;;;;;;;;;;;;;;;;;5065638;28;1914;-66
2022/07/25 12:03:36;;;;;;;;;;;;;;;;;;5068929;28;1254;-66
2022/07/25 12:06:06;;;;;;;;;;;;;;;;;;5064593;28;1698;-66
2022/07/25 12:08:35;;;;;;;;;;;;;;;;;;5067864;28;1252;-66
2022/07/25 12:11:01;;;;;;;;;;;;;;;;;;5065718;28;1345;-66
2022/07/25 12:13:27;;;;;;;;;;;;;;;;;;5051899;28;1514;-67
2022/07/25 12:15:54;;;;;;;;;;;;;;;;;;5049750;28;1337;-67
2022/07/25 12:18:19;;;;;;;;;;;;;;;;;;5056722;28;1292;-67
2022/07/25 12:20:44;;;;;;;;;;;;;;;;;;5056141;28;1955;-67
2022/07/25 12:23:10;;;;;;;;;;;;;;;;;;5059819;28;1154;-67
2022/07/25 12:25:37;;;;;;;;;;;;;;;;;;5044796;28;1552;-67
2022/07/25 12:28:02;;;;;;;;;;;;;;;;;;5058668;28;1200;-67
2022/07/25 12:30:28;;;;;;;;;;;;;;;;;;5053586;28;1655;-66
2022/07/25 12:32:55;;;;;;;;;;;;;;;;;;5058230;28;1137;-67
2022/07/25 12:35:20;;;;;;;;;;;;;;;;;;5054918;28;1518;-65
2022/07/25 12:37:45;;;;;;;;;;;;;;;;;;5053342;28;1733;-66
2022/07/25 12:40:11;;;;;;;;;;;;;;;;;;5051763;28;1894;-66
2022/07/25 12:42:36;;;;;;;;;;;;;;;;;;5058702;28;1488;-66
2022/07/25 12:45:02;;;;;;;;;;;;;;;;;;5051044;28;1314;-65
2022/07/25 12:47:28;;;;;;;;;;;;;;;;;;5033703;28;1463;-66
2022/07/25 12:49:53;;;;;;;;;;;;;;;;;;5048241;28;1353;-65
2022/07/25 12:52:19;;;;;;;;;;;;;;;;;;5053821;28;1183;-66
2022/07/25 12:54:44;;;;;;;;;;;;;;;;;;5052562;28;1288;-65
2022/07/25 12:57:10;;;;;;;;;;;;;;;;;;5058280;28;1475;-66
2022/07/25 12:59:36;;;;;;;;;;;;;;;;;;5042901;28;1592;-66
2022/07/25 13:02:01;;;;;;;;;;;;;;;;;;5044543;28;1971;-66
2022/07/25 13:04:27;;;;;;;;;;;;;;;;;;5052128;28;1421;-66
2022/07/25 13:06:55;;;;;;;;;;;;;;;;;;5043549;28;1410;-65
2022/07/25 13:09:21;;;;;;;;;;;;;;;;;;5045608;28;1707;-65
2022/07/25 13:11:46;;;;;;;;;;;;;;;;;;5057207;28;1646;-65
2022/07/25 13:14:11;;;;;;;;;;;;;;;;;;5059215;28;1124;-65
2022/07/25 13:16:37;;;;;;;;;;;;;;;;;;5043431;28;1612;-65
2022/07/25 13:19:03;;;;;;;;;;;;;;;;;;5054193;28;1668;-64
2022/07/25 13:21:29;;;;;;;;;;;;;;;;;;5058023;28;1901;-66
2022/07/25 13:23:55;;;;;;;;;;;;;;;;;;5061044;28;1354;-66
2022/07/25 13:26:20;;;;;;;;;;;;;;;;;;5062233;28;1337;-66
2022/07/25 13:28:45;;;;;;;;;;;;;;;;;;5060735;28;1694;-66
2022/07/25 13:31:10;;;;;;;;;;;;;;;;;;5055543;28;1400;-66
2022/07/25 13:33:35;;;;;;;;;;;;;;;;;;5056001;28;1519;-66
2022/07/25 13:36:01;;;;;;;;;;;;;;;;;;5057622;28;1429;-67
2022/07/25 13:38:26;;;;;;;;;;;;;;;;;;5050461;28;1423;-65
2022/07/25 13:40:51;;;;;;;;;;;;;;;;;;5061803;28;1967;-65
2022/07/25 13:43:16;;;;;;;;;;;;;;;;;;5052413;28;1629;-65
2022/07/25 13:45:42;;;;;;;;;;;;;;;;;;5045129;28;1001;-66
2022/07/25 13:48:07;;;;;;;;;;;;;;;;;;5049459;28;1322;-66
2022/07/25 13:50:32;;;;;;;;;;;;;;;;;;5053675;28;1456;-66
2022/07/25 13:52:59;;;;;;;;;;;;;;;;;;5053630;28;1302;-65
2022/07/25 13:55:27;;;;;;;;;;;;;;;;;;5029871;28;1753;-65
2022/07/25 13:57:53;;;;;;;;;;;;;;;;;;5045756;28;1408;-65
2022/07/25 14:00:18;;;;;;;;;;;;;;;;;;5050650;28;1969;-65
2022/07/25 14:02:43;;;;;;;;;;;;;;;;;;5059110;28;1120;-65
2022/07/25 14:05:08;;;;;;;;;;;;;;;;;;5048362;28;1387;-65
2022/07/25 14:07:34;;;;;;;;;;;;;;;;;;5053113;28;1199;-65
2022/07/25 14:09:59;;;;;;;;;;;;;;;;;;5060002;28;1543;-65
2022/07/25 14:12:25;;;;;;;;;;;;;;;;;;5058482;28;1440;-64
2022/07/25 14:14:50;;;;;;;;;;;;;;;;;;5061780;28;1377;-65
2022/07/25 14:17:15;;;;;;;;;;;;;;;;;;5048047;28;1587;-65
2022/07/25 14:19:41;;;;;;;;;;;;;;;;;;5056871;28;1069;-65
2022/07/25 14:22:06;;;;;;;;;;;;;;;;;;5057010;28;1898;-65
2022/07/25 14:24:31;;;;;;;;;;;;;;;;;;5046009;28;1168;-66
2022/07/25 14:26:57;;;;;;;;;;;;;;;;;;5044730;28;1354;-65
2022/07/25 14:29:22;;;;;;;;;;;;;;;;;;5044286;28;1311;-65
2022/07/25 14:31:48;;;;;;;;;;;;;;;;;;5051533;28;1272;-65
2022/07/25 14:34:14;;;;;;;;;;;;;;;;;;5048400;28;1277;-66
2022/07/25 14:36:40;;;;;;;;;;;;;;;;;;5047375;28;1252;-66
2022/07/25 14:39:05;;;;;;;;;;;;;;;;;;5032376;28;1579;-66
2022/07/25 14:41:30;;;;;;;;;;;;;;;;;;5050403;28;2240;-66
2022/07/25 14:43:55;;;;;;;;;;;;;;;;;;5031585;28;1411;-66
2022/07/25 14:46:21;;;;;;;;;;;;;;;;;;5029072;28;1271;-65
2022/07/25 14:48:46;;;;;;;;;;;;;;;;;;5049281;28;1274;-65
2022/07/25 14:51:11;;;;;;;;;;;;;;;;;;5050841;28;1308;-65
2022/07/25 14:53:36;;;;;;;;;;;;;;;;;;5050781;28;1219;-66
2022/07/25 14:56:02;;;;;;;;;;;;;;;;;;5054505;28;1278;-65
2022/07/25 14:58:28;;;;;;;;;;;;;;;;;;5046681;28;1254;-65
2022/07/25 15:00:53;;;;;;;;;;;;;;;;;;5028737;28;1902;-65
2022/07/25 15:03:18;;;;;;;;;;;;;;;;;;5051737;28;1405;-65
2022/07/25 15:05:43;;;;;;;;;;;;;;;;;;5047206;28;1247;-66
2022/07/25 15:08:11;;;;;;;;;;;;;;;;;;5046282;28;1255;-65
2022/07/25 15:10:36;;;;;;;;;;;;;;;;;;5047919;28;1306;-66
2022/07/25 15:13:01;;;;;;;;;;;;;;;;;;5048705;28;1532;-65
2022/07/25 15:15:26;;;;;;;;;;;;;;;;;;5049758;28;1251;-66
2022/07/25 15:17:52;;;;;;;;;;;;;;;;;;5049037;28;1390;-66
2022/07/25 15:20:17;;;;;;;;;;;;;;;;;;5054622;28;1898;-66
2022/07/25 15:22:42;;;;;;;;;;;;;;;;;;5054134;28;1824;-67
2022/07/25 15:25:08;;;;;;;;;;;;;;;;;;5057238;28;1331;-67
2022/07/25 15:27:33;;;;;;;;;;;;;;;;;;5058375;28;1511;-67
2022/07/25 15:29:58;;;;;;;;;;;;;;;;;;5060733;28;1132;-67
2022/07/25 15:32:24;;;;;;;;;;;;;;;;;;5062597;28;974;-68
2022/07/25 15:34:49;;;;;;;;;;;;;;;;;;5050752;28;1331;-67
2022/07/25 15:37:14;;;;;;;;;;;;;;;;;;5035436;28;1257;-67
2022/07/25 15:39:39;;;;;;;;;;;;;;;;;;5041604;28;1224;-67
2022/07/25 15:42:04;;;;;;;;;;;;;;;;;;5050847;28;1910;-67
2022/07/25 15:44:31;;;;;;;;;;;;;;;;;;5058840;28;1330;-68
2022/07/25 15:46:57;;;;;;;;;;;;;;;;;;5044465;28;1332;-67
2022/07/25 15:49:22;;;;;;;;;;;;;;;;;;5048536;28;1187;-68
2022/07/25 15:51:47;;;;;;;;;;;;;;;;;;5046845;28;1299;-67
2022/07/25 15:54:12;;;;;;;;;;;;;;;;;;5048095;28;1278;-68
2022/07/25 15:56:38;;;;;;;;;;;;;;;;;;5040780;28;1327;-67
2022/07/25 15:59:03;;;;;;;;;;;;;;;;;;5015911;28;1779;-68
2022/07/25 16:01:28;;;;;;;;;;;;;;;;;;5048984;28;1902;-68
2022/07/25 16:03:58;;;;;;;;;;;;;;;;;;5048327;28;1353;-69
2022/07/25 16:06:23;;;;;;;;;;;;;;;;;;5042625;28;1351;-67
2022/07/25 16:08:49;;;;;;;;;;;;;;;;;;5043465;28;1407;-67
2022/07/25 16:11:14;;;;;;;;;;;;;;;;;;5048249;28;1294;-67
2022/07/25 16:13:40;;;;;;;;;;;;;;;;;;5058085;28;1295;-67
2022/07/25 16:16:06;;;;;;;;;;;;;;;;;;5055812;28;1187;-67
2022/07/25 16:18:31;;;;;;;;;;;;;;;;;;5055456;28;1343;-67
2022/07/25 16:20:56;;;;;;;;;;;;;;;;;;5045084;28;1886;-67
2022/07/25 16:23:24;;;;;;;;;;;;;;;;;;5026351;28;1335;-67
2022/07/25 16:25:49;;;;;;;;;;;;;;;;;;5051713;28;1236;-68
2022/07/25 16:28:15;;;;;;;;;;;;;;;;;;5053980;28;1299;-67
2022/07/25 16:30:40;;;;;;;;;;;;;;;;;;5049113;28;1413;-69
2022/07/25 16:33:05;;;;;;;;;;;;;;;;;;5058179;28;1460;-68
2022/07/25 16:35:31;;;;;;;;;;;;;;;;;;5043227;28;1211;-68
2022/07/25 16:37:56;;;;;;;;;;;;;;;;;;5041882;28;1326;-66
2022/07/25 16:40:22;;;;;;;;;;;;;;;;;;5049388;28;1890;-65
2022/07/25 16:42:48;;;;;;;;;;;;;;;;;;5054058;28;1424;-65
2022/07/25 16:45:13;;;;;;;;;;;;;;;;;;5029321;28;1285;-65
2022/07/25 16:47:40;;;;;;;;;;;;;;;;;;5043036;28;1521;-66
2022/07/25 16:50:05;;;;;;;;;;;;;;;;;;5043305;28;1495;-66
2022/07/25 16:52:31;;;;;;;;;;;;;;;;;;5036876;28;1298;-66
2022/07/25 16:54:56;;;;;;;;;;;;;;;;;;5044011;28;1351;-66
2022/07/25 16:57:21;;;;;;;;;;;;;;;;;;5049382;28;1373;-66